sensor_id;sensor_type;location;lat;lon;timestamp;P1;durP1;ratioP1;P2;durP2;ratioP2
37907;SDS011;23740;51.550;6.846;2024-03-29T00:00:38;0.60;;;0.40;;
37907;SDS011;23740;51.550;6.846;2024-03-29T00:03:04;0.65;;;0.32;;
37907;SDS011;23740;51.550;6.846;2024-03-29T00:05:31;1.77;;;0.55;;
37907;SDS011;23740;51.550;6.846;2024-03-29T00:07:58;1.60;;;0.60;;
37907;SDS011;23740;51.550;6.846;2024-03-29T00:10:24;1.70;;;0.70;;
37907;SDS011;23740;51.550;6.846;2024-03-29T00:12:50;1.05;;;0.60;;
37907;SDS011;23740;51.550;6.846;2024-03-29T00:15:17;1.00;;;0.60;;
37907;SDS011;23740;51.550;6.846;2024-03-29T00:17:43;1.02;;;0.88;;
37907;SDS011;23740;51.550;6.846;2024-03-29T00:20:10;1.23;;;0.20;;
37907;SDS011;23740;51.550;6.846;2024-03-29T00:22:37;1.15;;;0.90;;
37907;SDS011;23740;51.550;6.846;2024-03-29T00:25:04;0.85;;;0.70;;
37907;SDS011;23740;51.550;6.846;2024-03-29T00:27:31;2.58;;;0.73;;
37907;SDS011;23740;51.550;6.846;2024-03-29T00:29:58;2.67;;;0.80;;
37907;SDS011;23740;51.550;6.846;2024-03-29T00:32:24;1.50;;;0.50;;
37907;SDS011;23740;51.550;6.846;2024-03-29T00:34:51;2.03;;;0.73;;
37907;SDS011;23740;51.550;6.846;2024-03-29T00:37:20;1.27;;;0.68;;
37907;SDS011;23740;51.550;6.846;2024-03-29T00:39:46;1.38;;;0.60;;
37907;SDS011;23740;51.550;6.846;2024-03-29T00:42:12;0.95;;;0.50;;
37907;SDS011;23740;51.550;6.846;2024-03-29T00:44:40;1.13;;;0.65;;
37907;SDS011;23740;51.550;6.846;2024-03-29T00:47:07;3.03;;;1.00;;
37907;SDS011;23740;51.550;6.846;2024-03-29T00:49:33;2.40;;;0.60;;
37907;SDS011;23740;51.550;6.846;2024-03-29T00:52:00;0.68;;;0.43;;
37907;SDS011;23740;51.550;6.846;2024-03-29T00:54:27;1.65;;;0.50;;
37907;SDS011;23740;51.550;6.846;2024-03-29T00:56:53;0.40;;;0.40;;
37907;SDS011;23740;51.550;6.846;2024-03-29T00:59:20;1.95;;;0.57;;
37907;SDS011;23740;51.550;6.846;2024-03-29T01:01:46;1.58;;;0.77;;
37907;SDS011;23740;51.550;6.846;2024-03-29T01:04:12;2.08;;;0.88;;
37907;SDS011;23740;51.550;6.846;2024-03-29T01:06:39;3.33;;;0.70;;
37907;SDS011;23740;51.550;6.846;2024-03-29T01:09:06;3.22;;;0.65;;
37907;SDS011;23740;51.550;6.846;2024-03-29T01:11:32;2.50;;;0.85;;
37907;SDS011;23740;51.550;6.846;2024-03-29T01:13:59;1.17;;;0.50;;
37907;SDS011;23740;51.550;6.846;2024-03-29T01:16:25;0.75;;;0.60;;
37907;SDS011;23740;51.550;6.846;2024-03-29T01:18:51;1.23;;;0.70;;
37907;SDS011;23740;51.550;6.846;2024-03-29T01:21:18;1.73;;;0.50;;
37907;SDS011;23740;51.550;6.846;2024-03-29T01:23:44;0.50;;;0.50;;
37907;SDS011;23740;51.550;6.846;2024-03-29T01:26:10;1.40;;;0.57;;
37907;SDS011;23740;51.550;6.846;2024-03-29T01:28:38;2.92;;;0.52;;
37907;SDS011;23740;51.550;6.846;2024-03-29T01:31:05;1.45;;;0.60;;
37907;SDS011;23740;51.550;6.846;2024-03-29T01:33:31;1.08;;;0.40;;
37907;SDS011;23740;51.550;6.846;2024-03-29T01:36:02;1.35;;;0.65;;
37907;SDS011;23740;51.550;6.846;2024-03-29T01:40:54;1.15;;;0.30;;
37907;SDS011;23740;51.550;6.846;2024-03-29T01:43:21;0.55;;;0.55;;
37907;SDS011;23740;51.550;6.846;2024-03-29T01:45:48;0.65;;;0.40;;
37907;SDS011;23740;51.550;6.846;2024-03-29T01:48:15;1.83;;;0.52;;
37907;SDS011;23740;51.550;6.846;2024-03-29T01:50:42;3.67;;;0.60;;
37907;SDS011;23740;51.550;6.846;2024-03-29T01:55:35;1.75;;;0.80;;
37907;SDS011;23740;51.550;6.846;2024-03-29T01:58:01;1.30;;;0.40;;
37907;SDS011;23740;51.550;6.846;2024-03-29T02:00:28;1.10;;;0.60;;
37907;SDS011;23740;51.550;6.846;2024-03-29T02:02:56;0.98;;;0.63;;
37907;SDS011;23740;51.550;6.846;2024-03-29T02:05:23;1.67;;;0.55;;
37907;SDS011;23740;51.550;6.846;2024-03-29T02:07:50;0.98;;;0.40;;
37907;SDS011;23740;51.550;6.846;2024-03-29T02:10:17;0.50;;;0.50;;
37907;SDS011;23740;51.550;6.846;2024-03-29T02:12:44;1.27;;;0.70;;
37907;SDS011;23740;51.550;6.846;2024-03-29T02:15:14;1.75;;;0.80;;
37907;SDS011;23740;51.550;6.846;2024-03-29T02:17:41;1.10;;;0.63;;
37907;SDS011;23740;51.550;6.846;2024-03-29T02:20:08;0.82;;;0.47;;
37907;SDS011;23740;51.550;6.846;2024-03-29T02:22:50;0.77;;;0.43;;
37907;SDS011;23740;51.550;6.846;2024-03-29T02:25:20;0.50;;;0.50;;
37907;SDS011;23740;51.550;6.846;2024-03-29T02:27:46;0.70;;;0.57;;
37907;SDS011;23740;51.550;6.846;2024-03-29T02:32:39;0.95;;;0.60;;
37907;SDS011;23740;51.550;6.846;2024-03-29T02:37:33;1.30;;;0.50;;
37907;SDS011;23740;51.550;6.846;2024-03-29T02:40:00;0.75;;;0.55;;
37907;SDS011;23740;51.550;6.846;2024-03-29T02:42:27;0.68;;;0.40;;
37907;SDS011;23740;51.550;6.846;2024-03-29T02:44:54;2.50;;;0.50;;
37907;SDS011;23740;51.550;6.846;2024-03-29T02:47:21;1.33;;;0.60;;
37907;SDS011;23740;51.550;6.846;2024-03-29T02:49:47;0.82;;;0.63;;
37907;SDS011;23740;51.550;6.846;2024-03-29T02:52:14;1.08;;;0.63;;
37907;SDS011;23740;51.550;6.846;2024-03-29T02:54:40;0.88;;;0.77;;
37907;SDS011;23740;51.550;6.846;2024-03-29T02:59:34;0.85;;;0.47;;
37907;SDS011;23740;51.550;6.846;2024-03-29T03:02:00;1.50;;;0.60;;
37907;SDS011;23740;51.550;6.846;2024-03-29T03:04:26;1.90;;;0.55;;
37907;SDS011;23740;51.550;6.846;2024-03-29T03:06:53;1.30;;;0.60;;
37907;SDS011;23740;51.550;6.846;2024-03-29T03:09:21;1.05;;;0.68;;
37907;SDS011;23740;51.550;6.846;2024-03-29T03:12:06;0.80;;;0.57;;
37907;SDS011;23740;51.550;6.846;2024-03-29T03:14:32;0.88;;;0.45;;
37907;SDS011;23740;51.550;6.846;2024-03-29T03:17:00;1.20;;;0.40;;
37907;SDS011;23740;51.550;6.846;2024-03-29T03:19:26;1.15;;;0.38;;
37907;SDS011;23740;51.550;6.846;2024-03-29T03:21:52;1.17;;;0.63;;
37907;SDS011;23740;51.550;6.846;2024-03-29T03:24:19;0.32;;;0.32;;
37907;SDS011;23740;51.550;6.846;2024-03-29T03:26:45;0.55;;;0.55;;
37907;SDS011;23740;51.550;6.846;2024-03-29T03:29:12;3.15;;;0.50;;
37907;SDS011;23740;51.550;6.846;2024-03-29T03:31:38;2.03;;;0.63;;
37907;SDS011;23740;51.550;6.846;2024-03-29T03:34:05;0.50;;;0.50;;
37907;SDS011;23740;51.550;6.846;2024-03-29T03:36:31;2.28;;;0.47;;
37907;SDS011;23740;51.550;6.846;2024-03-29T03:38:57;0.70;;;0.45;;
37907;SDS011;23740;51.550;6.846;2024-03-29T03:41:24;2.13;;;0.50;;
37907;SDS011;23740;51.550;6.846;2024-03-29T03:43:50;1.13;;;0.73;;
37907;SDS011;23740;51.550;6.846;2024-03-29T03:46:16;1.30;;;0.85;;
37907;SDS011;23740;51.550;6.846;2024-03-29T03:48:43;0.73;;;0.50;;
37907;SDS011;23740;51.550;6.846;2024-03-29T03:51:09;0.82;;;0.50;;
37907;SDS011;23740;51.550;6.846;2024-03-29T03:53:36;1.05;;;0.63;;
37907;SDS011;23740;51.550;6.846;2024-03-29T03:56:04;1.15;;;0.50;;
37907;SDS011;23740;51.550;6.846;2024-03-29T03:58:31;2.72;;;0.70;;
37907;SDS011;23740;51.550;6.846;2024-03-29T04:00:57;1.25;;;0.52;;
37907;SDS011;23740;51.550;6.846;2024-03-29T04:03:29;1.00;;;0.68;;
37907;SDS011;23740;51.550;6.846;2024-03-29T04:05:56;2.05;;;0.65;;
37907;SDS011;23740;51.550;6.846;2024-03-29T04:08:23;0.95;;;0.60;;
37907;SDS011;23740;51.550;6.846;2024-03-29T04:10:49;1.10;;;0.68;;
37907;SDS011;23740;51.550;6.846;2024-03-29T04:13:15;1.27;;;0.47;;
37907;SDS011;23740;51.550;6.846;2024-03-29T04:15:41;2.13;;;0.80;;
37907;SDS011;23740;51.550;6.846;2024-03-29T04:18:08;1.75;;;0.50;;
37907;SDS011;23740;51.550;6.846;2024-03-29T04:20:34;3.42;;;0.45;;
37907;SDS011;23740;51.550;6.846;2024-03-29T04:23:04;1.95;;;0.65;;
37907;SDS011;23740;51.550;6.846;2024-03-29T04:25:32;1.13;;;0.60;;
37907;SDS011;23740;51.550;6.846;2024-03-29T04:27:58;1.65;;;0.32;;
37907;SDS011;23740;51.550;6.846;2024-03-29T04:30:24;1.65;;;0.60;;
37907;SDS011;23740;51.550;6.846;2024-03-29T04:32:51;1.73;;;0.52;;
37907;SDS011;23740;51.550;6.846;2024-03-29T04:35:17;0.80;;;0.40;;
37907;SDS011;23740;51.550;6.846;2024-03-29T04:37:43;1.17;;;0.43;;
37907;SDS011;23740;51.550;6.846;2024-03-29T04:40:11;1.92;;;0.40;;
37907;SDS011;23740;51.550;6.846;2024-03-29T04:42:37;2.55;;;0.40;;
37907;SDS011;23740;51.550;6.846;2024-03-29T04:45:04;1.13;;;0.60;;
37907;SDS011;23740;51.550;6.846;2024-03-29T04:47:31;1.52;;;0.55;;
37907;SDS011;23740;51.550;6.846;2024-03-29T04:49:57;1.50;;;0.52;;
37907;SDS011;23740;51.550;6.846;2024-03-29T04:52:24;0.90;;;0.50;;
37907;SDS011;23740;51.550;6.846;2024-03-29T04:54:51;1.85;;;0.75;;
37907;SDS011;23740;51.550;6.846;2024-03-29T04:57:18;1.10;;;0.32;;
37907;SDS011;23740;51.550;6.846;2024-03-29T04:59:45;1.45;;;0.85;;
37907;SDS011;23740;51.550;6.846;2024-03-29T05:02:11;1.35;;;0.60;;
37907;SDS011;23740;51.550;6.846;2024-03-29T05:04:37;1.45;;;0.88;;
37907;SDS011;23740;51.550;6.846;2024-03-29T05:07:04;2.15;;;0.75;;
37907;SDS011;23740;51.550;6.846;2024-03-29T05:09:30;3.78;;;0.88;;
37907;SDS011;23740;51.550;6.846;2024-03-29T05:11:57;1.90;;;0.90;;
37907;SDS011;23740;51.550;6.846;2024-03-29T05:14:24;1.95;;;0.93;;
37907;SDS011;23740;51.550;6.846;2024-03-29T05:16:50;1.70;;;1.02;;
37907;SDS011;23740;51.550;6.846;2024-03-29T05:19:17;1.95;;;0.77;;
37907;SDS011;23740;51.550;6.846;2024-03-29T05:21:43;4.60;;;0.90;;
37907;SDS011;23740;51.550;6.846;2024-03-29T05:24:10;1.02;;;0.50;;
37907;SDS011;23740;51.550;6.846;2024-03-29T05:26:36;1.90;;;0.80;;
37907;SDS011;23740;51.550;6.846;2024-03-29T05:29:02;3.50;;;0.75;;
37907;SDS011;23740;51.550;6.846;2024-03-29T05:31:30;1.17;;;0.60;;
37907;SDS011;23740;51.550;6.846;2024-03-29T05:33:57;1.67;;;0.63;;
37907;SDS011;23740;51.550;6.846;2024-03-29T05:36:23;1.20;;;0.73;;
37907;SDS011;23740;51.550;6.846;2024-03-29T05:38:49;0.90;;;0.60;;
37907;SDS011;23740;51.550;6.846;2024-03-29T05:41:16;3.03;;;0.80;;
37907;SDS011;23740;51.550;6.846;2024-03-29T05:43:42;2.00;;;0.57;;
37907;SDS011;23740;51.550;6.846;2024-03-29T05:46:08;1.55;;;0.63;;
37907;SDS011;23740;51.550;6.846;2024-03-29T05:48:35;3.00;;;0.70;;
37907;SDS011;23740;51.550;6.846;2024-03-29T05:51:03;2.70;;;0.93;;
37907;SDS011;23740;51.550;6.846;2024-03-29T05:53:30;1.50;;;0.70;;
37907;SDS011;23740;51.550;6.846;2024-03-29T05:55:57;1.75;;;0.80;;
37907;SDS011;23740;51.550;6.846;2024-03-29T05:58:23;1.00;;;0.65;;
37907;SDS011;23740;51.550;6.846;2024-03-29T06:00:49;1.38;;;0.80;;
37907;SDS011;23740;51.550;6.846;2024-03-29T06:03:16;1.75;;;0.63;;
37907;SDS011;23740;51.550;6.846;2024-03-29T06:05:43;2.50;;;0.80;;
37907;SDS011;23740;51.550;6.846;2024-03-29T06:08:09;1.67;;;0.82;;
37907;SDS011;23740;51.550;6.846;2024-03-29T06:10:36;0.98;;;0.80;;
37907;SDS011;23740;51.550;6.846;2024-03-29T06:13:02;1.83;;;0.90;;
37907;SDS011;23740;51.550;6.846;2024-03-29T06:15:33;3.47;;;0.85;;
37907;SDS011;23740;51.550;6.846;2024-03-29T06:18:18;1.80;;;0.80;;
37907;SDS011;23740;51.550;6.846;2024-03-29T06:20:45;1.70;;;0.90;;
37907;SDS011;23740;51.550;6.846;2024-03-29T06:23:12;1.52;;;0.85;;
37907;SDS011;23740;51.550;6.846;2024-03-29T06:25:40;1.90;;;1.02;;
37907;SDS011;23740;51.550;6.846;2024-03-29T06:28:06;2.03;;;1.23;;
37907;SDS011;23740;51.550;6.846;2024-03-29T06:30:33;2.45;;;1.23;;
37907;SDS011;23740;51.550;6.846;2024-03-29T06:32:59;1.33;;;1.00;;
37907;SDS011;23740;51.550;6.846;2024-03-29T06:35:28;2.50;;;1.50;;
37907;SDS011;23740;51.550;6.846;2024-03-29T06:37:55;2.92;;;1.05;;
37907;SDS011;23740;51.550;6.846;2024-03-29T06:40:22;2.35;;;0.88;;
37907;SDS011;23740;51.550;6.846;2024-03-29T06:42:48;2.78;;;1.23;;
37907;SDS011;23740;51.550;6.846;2024-03-29T06:45:15;3.28;;;1.20;;
37907;SDS011;23740;51.550;6.846;2024-03-29T06:47:41;2.35;;;1.35;;
37907;SDS011;23740;51.550;6.846;2024-03-29T06:50:08;3.50;;;1.40;;
37907;SDS011;23740;51.550;6.846;2024-03-29T06:52:35;1.50;;;1.00;;
37907;SDS011;23740;51.550;6.846;2024-03-29T06:55:02;1.80;;;1.05;;
37907;SDS011;23740;51.550;6.846;2024-03-29T06:57:29;2.35;;;1.15;;
37907;SDS011;23740;51.550;6.846;2024-03-29T06:59:57;1.80;;;1.10;;
37907;SDS011;23740;51.550;6.846;2024-03-29T07:02:23;2.22;;;1.00;;
37907;SDS011;23740;51.550;6.846;2024-03-29T07:04:50;2.63;;;1.40;;
37907;SDS011;23740;51.550;6.846;2024-03-29T07:07:17;4.18;;;1.80;;
37907;SDS011;23740;51.550;6.846;2024-03-29T07:09:43;4.28;;;1.40;;
37907;SDS011;23740;51.550;6.846;2024-03-29T07:12:10;2.45;;;1.17;;
37907;SDS011;23740;51.550;6.846;2024-03-29T07:14:37;1.45;;;1.35;;
37907;SDS011;23740;51.550;6.846;2024-03-29T07:17:03;2.08;;;1.17;;
37907;SDS011;23740;51.550;6.846;2024-03-29T07:19:30;1.40;;;1.30;;
37907;SDS011;23740;51.550;6.846;2024-03-29T07:21:57;2.38;;;1.40;;
37907;SDS011;23740;51.550;6.846;2024-03-29T07:24:23;1.45;;;1.35;;
37907;SDS011;23740;51.550;6.846;2024-03-29T07:26:49;1.20;;;1.10;;
37907;SDS011;23740;51.550;6.846;2024-03-29T07:29:16;1.83;;;1.05;;
37907;SDS011;23740;51.550;6.846;2024-03-29T07:31:43;1.63;;;1.10;;
37907;SDS011;23740;51.550;6.846;2024-03-29T07:34:09;2.72;;;1.02;;
37907;SDS011;23740;51.550;6.846;2024-03-29T07:36:36;1.98;;;1.05;;
37907;SDS011;23740;51.550;6.846;2024-03-29T07:39:03;1.25;;;0.82;;
37907;SDS011;23740;51.550;6.846;2024-03-29T07:41:29;2.70;;;1.13;;
37907;SDS011;23740;51.550;6.846;2024-03-29T07:43:56;2.38;;;1.20;;
37907;SDS011;23740;51.550;6.846;2024-03-29T07:46:28;4.88;;;1.38;;
37907;SDS011;23740;51.550;6.846;2024-03-29T07:48:55;1.48;;;1.10;;
37907;SDS011;23740;51.550;6.846;2024-03-29T07:51:21;3.30;;;0.90;;
37907;SDS011;23740;51.550;6.846;2024-03-29T07:53:48;1.30;;;1.02;;
37907;SDS011;23740;51.550;6.846;2024-03-29T07:56:14;1.95;;;1.02;;
37907;SDS011;23740;51.550;6.846;2024-03-29T07:58:42;2.78;;;1.35;;
37907;SDS011;23740;51.550;6.846;2024-03-29T08:01:17;2.63;;;0.93;;
37907;SDS011;23740;51.550;6.846;2024-03-29T08:03:44;1.73;;;1.27;;
37907;SDS011;23740;51.550;6.846;2024-03-29T08:06:11;2.88;;;1.00;;
37907;SDS011;23740;51.550;6.846;2024-03-29T08:08:37;3.38;;;1.58;;
37907;SDS011;23740;51.550;6.846;2024-03-29T08:11:04;2.25;;;1.10;;
37907;SDS011;23740;51.550;6.846;2024-03-29T08:13:30;1.08;;;0.98;;
37907;SDS011;23740;51.550;6.846;2024-03-29T08:15:57;1.10;;;1.00;;
37907;SDS011;23740;51.550;6.846;2024-03-29T08:18:24;1.00;;;0.90;;
37907;SDS011;23740;51.550;6.846;2024-03-29T08:20:51;2.25;;;1.27;;
37907;SDS011;23740;51.550;6.846;2024-03-29T08:23:17;1.63;;;1.05;;
37907;SDS011;23740;51.550;6.846;2024-03-29T08:28:10;2.05;;;0.90;;
37907;SDS011;23740;51.550;6.846;2024-03-29T08:30:37;1.23;;;1.13;;
37907;SDS011;23740;51.550;6.846;2024-03-29T08:33:03;1.98;;;0.90;;
37907;SDS011;23740;51.550;6.846;2024-03-29T08:35:30;0.73;;;0.73;;
37907;SDS011;23740;51.550;6.846;2024-03-29T08:37:57;1.30;;;1.20;;
37907;SDS011;23740;51.550;6.846;2024-03-29T08:40:24;1.40;;;1.23;;
37907;SDS011;23740;51.550;6.846;2024-03-29T08:42:54;1.70;;;1.27;;
37907;SDS011;23740;51.550;6.846;2024-03-29T08:45:20;1.38;;;1.20;;
37907;SDS011;23740;51.550;6.846;2024-03-29T08:47:47;1.45;;;1.35;;
37907;SDS011;23740;51.550;6.846;2024-03-29T08:52:40;2.67;;;0.93;;
37907;SDS011;23740;51.550;6.846;2024-03-29T08:55:07;2.30;;;1.48;;
37907;SDS011;23740;51.550;6.846;2024-03-29T08:57:34;1.60;;;1.33;;
37907;SDS011;23740;51.550;6.846;2024-03-29T09:00:01;2.58;;;1.33;;
37907;SDS011;23740;51.550;6.846;2024-03-29T09:02:28;2.90;;;1.25;;
37907;SDS011;23740;51.550;6.846;2024-03-29T09:04:55;2.70;;;1.30;;
37907;SDS011;23740;51.550;6.846;2024-03-29T09:07:22;1.60;;;1.42;;
37907;SDS011;23740;51.550;6.846;2024-03-29T09:09:49;1.77;;;1.40;;
37907;SDS011;23740;51.550;6.846;2024-03-29T09:14:43;1.65;;;1.55;;
37907;SDS011;23740;51.550;6.846;2024-03-29T09:17:10;1.50;;;1.08;;
37907;SDS011;23740;51.550;6.846;2024-03-29T09:19:37;1.83;;;1.40;;
37907;SDS011;23740;51.550;6.846;2024-03-29T09:22:03;2.75;;;1.50;;
37907;SDS011;23740;51.550;6.846;2024-03-29T09:24:31;2.17;;;1.40;;
37907;SDS011;23740;51.550;6.846;2024-03-29T09:26:59;1.75;;;1.63;;
37907;SDS011;23740;51.550;6.846;2024-03-29T09:32:12;3.10;;;1.48;;
37907;SDS011;23740;51.550;6.846;2024-03-29T09:34:38;1.90;;;1.80;;
37907;SDS011;23740;51.550;6.846;2024-03-29T09:39:31;8.52;;;3.42;;
37907;SDS011;23740;51.550;6.846;2024-03-29T09:41:58;2.50;;;2.30;;
37907;SDS011;23740;51.550;6.846;2024-03-29T09:44:25;1.80;;;1.63;;
37907;SDS011;23740;51.550;6.846;2024-03-29T09:46:58;2.25;;;1.52;;
37907;SDS011;23740;51.550;6.846;2024-03-29T09:49:25;4.00;;;1.90;;
37907;SDS011;23740;51.550;6.846;2024-03-29T09:51:52;2.88;;;1.50;;
37907;SDS011;23740;51.550;6.846;2024-03-29T09:54:18;1.58;;;1.38;;
37907;SDS011;23740;51.550;6.846;2024-03-29T09:56:45;2.08;;;1.50;;
37907;SDS011;23740;51.550;6.846;2024-03-29T09:59:11;1.85;;;1.55;;
37907;SDS011;23740;51.550;6.846;2024-03-29T10:01:37;2.03;;;1.75;;
37907;SDS011;23740;51.550;6.846;2024-03-29T10:04:05;2.80;;;1.88;;
37907;SDS011;23740;51.550;6.846;2024-03-29T10:06:34;1.67;;;1.48;;
37907;SDS011;23740;51.550;6.846;2024-03-29T10:09:01;1.65;;;1.55;;
37907;SDS011;23740;51.550;6.846;2024-03-29T10:11:27;1.95;;;1.35;;
37907;SDS011;23740;51.550;6.846;2024-03-29T10:16:20;2.20;;;1.85;;
37907;SDS011;23740;51.550;6.846;2024-03-29T10:18:47;2.60;;;1.83;;
37907;SDS011;23740;51.550;6.846;2024-03-29T10:21:14;1.83;;;1.58;;
37907;SDS011;23740;51.550;6.846;2024-03-29T10:23:41;2.28;;;2.08;;
37907;SDS011;23740;51.550;6.846;2024-03-29T10:26:08;2.63;;;1.95;;
37907;SDS011;23740;51.550;6.846;2024-03-29T10:28:35;2.28;;;2.03;;
37907;SDS011;23740;51.550;6.846;2024-03-29T10:31:02;2.20;;;1.63;;
37907;SDS011;23740;51.550;6.846;2024-03-29T10:33:29;2.53;;;1.50;;
37907;SDS011;23740;51.550;6.846;2024-03-29T10:35:56;1.77;;;1.50;;
37907;SDS011;23740;51.550;6.846;2024-03-29T10:38:25;2.70;;;1.70;;
37907;SDS011;23740;51.550;6.846;2024-03-29T10:40:52;2.25;;;1.77;;
37907;SDS011;23740;51.550;6.846;2024-03-29T10:43:19;1.92;;;1.73;;
37907;SDS011;23740;51.550;6.846;2024-03-29T10:45:46;1.77;;;1.67;;
37907;SDS011;23740;51.550;6.846;2024-03-29T10:48:14;5.60;;;3.15;;
37907;SDS011;23740;51.550;6.846;2024-03-29T10:50:41;2.75;;;1.83;;
37907;SDS011;23740;51.550;6.846;2024-03-29T10:53:09;2.15;;;1.50;;
37907;SDS011;23740;51.550;6.846;2024-03-29T10:55:37;1.80;;;1.70;;
37907;SDS011;23740;51.550;6.846;2024-03-29T10:58:04;3.85;;;1.73;;
37907;SDS011;23740;51.550;6.846;2024-03-29T11:00:32;3.58;;;1.73;;
37907;SDS011;23740;51.550;6.846;2024-03-29T11:03:05;2.17;;;1.58;;
37907;SDS011;23740;51.550;6.846;2024-03-29T11:05:35;1.80;;;1.67;;
37907;SDS011;23740;51.550;6.846;2024-03-29T11:08:02;3.92;;;1.65;;
37907;SDS011;23740;51.550;6.846;2024-03-29T11:10:29;3.78;;;2.38;;
37907;SDS011;23740;51.550;6.846;2024-03-29T11:13:01;2.13;;;1.70;;
37907;SDS011;23740;51.550;6.846;2024-03-29T11:15:30;3.70;;;1.70;;
37907;SDS011;23740;51.550;6.846;2024-03-29T11:17:57;2.67;;;2.10;;
37907;SDS011;23740;51.550;6.846;2024-03-29T11:20:24;2.30;;;1.75;;
37907;SDS011;23740;51.550;6.846;2024-03-29T11:23:03;5.28;;;2.63;;
37907;SDS011;23740;51.550;6.846;2024-03-29T11:25:38;2.92;;;1.85;;
37907;SDS011;23740;51.550;6.846;2024-03-29T11:28:06;1.50;;;1.30;;
37907;SDS011;23740;51.550;6.846;2024-03-29T11:30:39;1.42;;;1.33;;
37907;SDS011;23740;51.550;6.846;2024-03-29T11:33:06;1.75;;;1.58;;
37907;SDS011;23740;51.550;6.846;2024-03-29T11:35:32;2.75;;;1.85;;
37907;SDS011;23740;51.550;6.846;2024-03-29T11:37:59;4.20;;;1.60;;
37907;SDS011;23740;51.550;6.846;2024-03-29T11:40:29;2.25;;;1.67;;
37907;SDS011;23740;51.550;6.846;2024-03-29T11:42:55;2.20;;;1.60;;
37907;SDS011;23740;51.550;6.846;2024-03-29T11:45:23;3.17;;;1.73;;
37907;SDS011;23740;51.550;6.846;2024-03-29T11:47:54;4.15;;;2.35;;
37907;SDS011;23740;51.550;6.846;2024-03-29T11:50:21;2.50;;;1.83;;
37907;SDS011;23740;51.550;6.846;2024-03-29T11:52:47;2.42;;;1.85;;
37907;SDS011;23740;51.550;6.846;2024-03-29T11:55:13;2.63;;;2.03;;
37907;SDS011;23740;51.550;6.846;2024-03-29T11:57:40;2.22;;;1.70;;
37907;SDS011;23740;51.550;6.846;2024-03-29T12:00:07;1.42;;;1.33;;
37907;SDS011;23740;51.550;6.846;2024-03-29T12:02:37;2.20;;;1.90;;
37907;SDS011;23740;51.550;6.846;2024-03-29T12:05:06;1.98;;;1.88;;
37907;SDS011;23740;51.550;6.846;2024-03-29T12:07:35;2.20;;;1.17;;
37907;SDS011;23740;51.550;6.846;2024-03-29T12:10:03;1.30;;;1.02;;
37907;SDS011;23740;51.550;6.846;2024-03-29T12:12:30;2.35;;;1.30;;
37907;SDS011;23740;51.550;6.846;2024-03-29T12:15:01;1.23;;;1.13;;
37907;SDS011;23740;51.550;6.846;2024-03-29T12:17:27;1.15;;;1.05;;
37907;SDS011;23740;51.550;6.846;2024-03-29T12:19:58;1.30;;;1.20;;
37907;SDS011;23740;51.550;6.846;2024-03-29T12:22:29;1.48;;;1.17;;
37907;SDS011;23740;51.550;6.846;2024-03-29T12:24:56;1.30;;;1.20;;
37907;SDS011;23740;51.550;6.846;2024-03-29T12:27:23;1.30;;;1.20;;
37907;SDS011;23740;51.550;6.846;2024-03-29T12:29:50;1.63;;;1.20;;
37907;SDS011;23740;51.550;6.846;2024-03-29T12:32:18;1.25;;;0.98;;
37907;SDS011;23740;51.550;6.846;2024-03-29T12:34:45;1.75;;;0.90;;
37907;SDS011;23740;51.550;6.846;2024-03-29T12:37:13;1.33;;;0.88;;
37907;SDS011;23740;51.550;6.846;2024-03-29T12:39:40;1.02;;;0.93;;
37907;SDS011;23740;51.550;6.846;2024-03-29T12:42:07;1.55;;;0.98;;
37907;SDS011;23740;51.550;6.846;2024-03-29T12:44:34;0.95;;;0.95;;
37907;SDS011;23740;51.550;6.846;2024-03-29T12:47:00;0.70;;;0.70;;
37907;SDS011;23740;51.550;6.846;2024-03-29T12:49:27;0.90;;;0.90;;
37907;SDS011;23740;51.550;6.846;2024-03-29T12:51:55;1.65;;;0.75;;
37907;SDS011;23740;51.550;6.846;2024-03-29T12:54:22;1.75;;;0.82;;
37907;SDS011;23740;51.550;6.846;2024-03-29T12:56:49;0.93;;;0.93;;
37907;SDS011;23740;51.550;6.846;2024-03-29T12:59:15;0.63;;;0.63;;
37907;SDS011;23740;51.550;6.846;2024-03-29T13:01:43;1.17;;;1.05;;
37907;SDS011;23740;51.550;6.846;2024-03-29T13:04:11;0.82;;;0.82;;
37907;SDS011;23740;51.550;6.846;2024-03-29T13:06:38;0.73;;;0.70;;
37907;SDS011;23740;51.550;6.846;2024-03-29T13:09:04;1.05;;;0.68;;
37907;SDS011;23740;51.550;6.846;2024-03-29T13:11:31;2.63;;;0.90;;
37907;SDS011;23740;51.550;6.846;2024-03-29T13:13:58;0.90;;;0.90;;
37907;SDS011;23740;51.550;6.846;2024-03-29T13:16:24;0.90;;;0.63;;
37907;SDS011;23740;51.550;6.846;2024-03-29T13:18:51;1.85;;;1.23;;
37907;SDS011;23740;51.550;6.846;2024-03-29T13:21:17;1.75;;;0.80;;
37907;SDS011;23740;51.550;6.846;2024-03-29T13:23:44;0.95;;;0.82;;
37907;SDS011;23740;51.550;6.846;2024-03-29T13:26:10;1.90;;;1.50;;
37907;SDS011;23740;51.550;6.846;2024-03-29T13:28:37;0.82;;;0.82;;
37907;SDS011;23740;51.550;6.846;2024-03-29T13:31:04;0.70;;;0.68;;
37907;SDS011;23740;51.550;6.846;2024-03-29T13:33:30;1.02;;;1.00;;
37907;SDS011;23740;51.550;6.846;2024-03-29T13:35:57;1.00;;;0.90;;
37907;SDS011;23740;51.550;6.846;2024-03-29T13:38:24;1.25;;;0.75;;
37907;SDS011;23740;51.550;6.846;2024-03-29T13:40:54;1.50;;;1.40;;
37907;SDS011;23740;51.550;6.846;2024-03-29T13:43:22;1.35;;;0.77;;
37907;SDS011;23740;51.550;6.846;2024-03-29T13:45:49;2.05;;;1.00;;
37907;SDS011;23740;51.550;6.846;2024-03-29T13:48:18;1.05;;;0.75;;
37907;SDS011;23740;51.550;6.846;2024-03-29T13:50:45;0.85;;;0.70;;
37907;SDS011;23740;51.550;6.846;2024-03-29T13:53:11;2.28;;;0.93;;
37907;SDS011;23740;51.550;6.846;2024-03-29T13:55:38;1.67;;;0.80;;
37907;SDS011;23740;51.550;6.846;2024-03-29T13:58:05;2.05;;;0.80;;
37907;SDS011;23740;51.550;6.846;2024-03-29T14:00:32;1.45;;;0.52;;
37907;SDS011;23740;51.550;6.846;2024-03-29T14:02:59;0.60;;;0.60;;
37907;SDS011;23740;51.550;6.846;2024-03-29T14:05:26;0.60;;;0.60;;
37907;SDS011;23740;51.550;6.846;2024-03-29T14:07:52;1.00;;;0.90;;
37907;SDS011;23740;51.550;6.846;2024-03-29T14:10:19;0.65;;;0.65;;
37907;SDS011;23740;51.550;6.846;2024-03-29T14:12:45;0.93;;;0.85;;
37907;SDS011;23740;51.550;6.846;2024-03-29T14:15:12;1.02;;;0.80;;
37907;SDS011;23740;51.550;6.846;2024-03-29T14:17:39;1.02;;;0.70;;
37907;SDS011;23740;51.550;6.846;2024-03-29T14:20:08;0.85;;;0.85;;
37907;SDS011;23740;51.550;6.846;2024-03-29T14:22:38;1.40;;;0.90;;
37907;SDS011;23740;51.550;6.846;2024-03-29T14:25:05;1.58;;;0.80;;
37907;SDS011;23740;51.550;6.846;2024-03-29T14:27:36;2.53;;;1.10;;
37907;SDS011;23740;51.550;6.846;2024-03-29T14:30:11;0.68;;;0.68;;
37907;SDS011;23740;51.550;6.846;2024-03-29T14:32:39;0.80;;;0.80;;
37907;SDS011;23740;51.550;6.846;2024-03-29T14:35:23;1.15;;;0.85;;
37907;SDS011;23740;51.550;6.846;2024-03-29T14:37:51;1.17;;;0.70;;
37907;SDS011;23740;51.550;6.846;2024-03-29T14:40:17;1.23;;;0.90;;
37907;SDS011;23740;51.550;6.846;2024-03-29T14:42:44;1.50;;;1.05;;
37907;SDS011;23740;51.550;6.846;2024-03-29T14:45:10;1.00;;;0.70;;
37907;SDS011;23740;51.550;6.846;2024-03-29T14:47:37;1.35;;;0.77;;
37907;SDS011;23740;51.550;6.846;2024-03-29T14:50:04;1.52;;;0.80;;
37907;SDS011;23740;51.550;6.846;2024-03-29T14:52:34;0.82;;;0.60;;
37907;SDS011;23740;51.550;6.846;2024-03-29T14:55:00;0.95;;;0.70;;
37907;SDS011;23740;51.550;6.846;2024-03-29T14:57:27;1.17;;;1.02;;
37907;SDS011;23740;51.550;6.846;2024-03-29T14:59:54;0.85;;;0.70;;
37907;SDS011;23740;51.550;6.846;2024-03-29T15:02:21;0.50;;;0.50;;
37907;SDS011;23740;51.550;6.846;2024-03-29T15:04:47;1.33;;;0.73;;
37907;SDS011;23740;51.550;6.846;2024-03-29T15:07:14;0.70;;;0.70;;
37907;SDS011;23740;51.550;6.846;2024-03-29T15:09:41;0.77;;;0.73;;
37907;SDS011;23740;51.550;6.846;2024-03-29T15:12:08;1.55;;;1.00;;
37907;SDS011;23740;51.550;6.846;2024-03-29T15:14:34;1.02;;;0.60;;